Time;durP1;ratioP1;P1;durP2;ratioP2;P2;SDS_P1;SDS_P2;PMS_P1;PMS_P2;Temp;Humidity;BMP_temperature;BMP_pressure;BME280_temperature;BME280_humidity;BME280_pressure;Samples;Min_cycle;Max_cycle;Signal;HPM_P1;HPM_P2
2023/12/27 00:02:08;;;;;;;6.13;0.80;;;;;;;;;;5021941;28;20080;-78
2023/12/27 00:04:33;;;;;;;3.45;0.50;;;;;;;;;;5028079;28;20405;-78
2023/12/27 00:06:58;;;;;;;3.75;1.10;;;;;;;;;;5030009;28;20025;-78
2023/12/27 00:09:23;;;;;;;4.25;0.80;;;;;;;;;;5025844;28;20079;-78
2023/12/27 00:11:48;;;;;;;3.08;0.80;;;;;;;;;;5027947;28;20026;-78
2023/12/27 00:14:14;;;;;;;3.10;0.60;;;;;;;;;;5022806;28;20104;-78
2023/12/27 00:16:40;;;;;;;3.25;0.70;;;;;;;;;;5021119;28;20037;-78
2023/12/27 00:19:05;;;;;;;4.70;0.45;;;;;;;;;;5029914;28;20076;-77
2023/12/27 00:21:30;;;;;;;4.13;0.70;;;;;;;;;;5026719;28;20433;-78
2023/12/27 00:23:56;;;;;;;1.98;0.38;;;;;;;;;;5026711;28;20072;-78
2023/12/27 00:26:21;;;;;;;3.08;0.30;;;;;;;;;;5023445;28;20099;-78
2023/12/27 00:28:55;;;;;;;3.97;0.80;;;;;;;;;;5024030;28;20021;-77
2023/12/27 00:31:20;;;;;;;6.20;0.70;;;;;;;;;;5026741;28;20034;-78
2023/12/27 00:33:46;;;;;;;4.65;0.98;;;;;;;;;;5028010;28;20075;-77
2023/12/27 00:36:12;;;;;;;8.20;0.73;;;;;;;;;;5026363;28;20021;-78
2023/12/27 00:38:37;;;;;;;3.53;0.50;;;;;;;;;;5024474;28;20045;-77
2023/12/27 00:41:03;;;;;;;7.03;0.85;;;;;;;;;;5023445;28;20029;-78
2023/12/27 00:43:29;;;;;;;3.30;0.75;;;;;;;;;;5019123;28;20041;-78
2023/12/27 00:45:54;;;;;;;4.68;0.50;;;;;;;;;;5024725;28;20022;-78
2023/12/27 00:48:19;;;;;;;4.22;0.73;;;;;;;;;;5026755;28;20514;-78
2023/12/27 00:50:44;;;;;;;7.72;0.82;;;;;;;;;;5025112;28;20029;-77
2023/12/27 00:53:09;;;;;;;1.95;0.55;;;;;;;;;;5035921;28;20053;-77
2023/12/27 00:55:35;;;;;;;4.63;0.80;;;;;;;;;;5021588;28;20065;-78
2023/12/27 00:58:00;;;;;;;3.00;0.50;;;;;;;;;;5022103;28;20033;-78
2023/12/27 01:00:25;;;;;;;2.15;0.45;;;;;;;;;;5025101;28;20033;-78
2023/12/27 01:02:50;;;;;;;4.57;0.50;;;;;;;;;;5028836;28;20540;-78
2023/12/27 01:05:15;;;;;;;4.68;0.60;;;;;;;;;;5024716;28;20413;-78
2023/12/27 01:07:41;;;;;;;2.88;0.50;;;;;;;;;;5022618;28;20108;-78
2023/12/27 01:10:08;;;;;;;8.93;1.92;;;;;;;;;;5025833;28;20029;-78
2023/12/27 01:12:33;;;;;;;4.78;0.55;;;;;;;;;;5019129;28;20034;-78
2023/12/27 01:14:58;;;;;;;5.20;0.68;;;;;;;;;;5029444;28;20104;-78
2023/12/27 01:17:24;;;;;;;7.53;1.08;;;;;;;;;;5026088;28;20018;-78
2023/12/27 01:19:49;;;;;;;6.28;0.57;;;;;;;;;;5026272;28;20021;-78
2023/12/27 01:22:14;;;;;;;6.53;0.80;;;;;;;;;;5024892;28;20505;-78
2023/12/27 01:24:39;;;;;;;2.45;0.47;;;;;;;;;;5026488;28;20037;-77
2023/12/27 01:27:06;;;;;;;2.67;0.52;;;;;;;;;;5021025;28;20022;-78
2023/12/27 01:29:31;;;;;;;5.70;0.80;;;;;;;;;;5027322;28;20034;-78
2023/12/27 01:31:56;;;;;;;5.60;0.80;;;;;;;;;;5028988;28;20253;-77
2023/12/27 01:34:21;;;;;;;3.22;0.90;;;;;;;;;;5036512;23;20052;-80
2023/12/27 01:36:46;;;;;;;2.88;0.70;;;;;;;;;;5023609;28;20030;-79
2023/12/27 01:39:11;;;;;;;1.85;0.55;;;;;;;;;;5027010;28;20064;-80
2023/12/27 01:41:37;;;;;;;3.30;0.70;;;;;;;;;;5028567;28;20021;-79
2023/12/27 01:44:02;;;;;;;5.75;0.82;;;;;;;;;;5028340;28;20034;-80
2023/12/27 01:46:27;;;;;;;9.30;0.80;;;;;;;;;;5027523;28;20053;-80
2023/12/27 01:48:53;;;;;;;4.60;0.85;;;;;;;;;;5025657;28;20030;-79
2023/12/27 01:51:18;;;;;;;4.65;0.80;;;;;;;;;;5026421;28;20026;-79
2023/12/27 01:53:44;;;;;;;3.25;0.73;;;;;;;;;;5029068;28;20034;-80
2023/12/27 01:56:09;;;;;;;3.42;0.88;;;;;;;;;;5026205;28;20114;-80
2023/12/27 01:58:34;;;;;;;3.30;0.80;;;;;;;;;;5030475;28;20037;-79
2023/12/27 02:00:59;;;;;;;5.68;0.60;;;;;;;;;;5016450;28;20029;-79
2023/12/27 02:03:25;;;;;;;5.10;0.95;;;;;;;;;;5028843;28;20038;-79
2023/12/27 02:05:51;;;;;;;4.75;1.10;;;;;;;;;;5032652;28;20083;-80
2023/12/27 02:08:16;;;;;;;7.93;1.00;;;;;;;;;;5025971;28;20367;-80
2023/12/27 02:10:42;;;;;;;3.40;1.00;;;;;;;;;;5032107;28;20032;-80
2023/12/27 02:13:07;;;;;;;2.50;0.70;;;;;;;;;;5032082;28;20030;-80
2023/12/27 02:15:33;;;;;;;6.80;1.02;;;;;;;;;;5030282;28;20077;-80
2023/12/27 02:18:00;;;;;;;4.15;1.05;;;;;;;;;;5032465;28;20033;-79
2023/12/27 02:20:25;;;;;;;7.45;0.80;;;;;;;;;;5028996;28;20483;-79
2023/12/27 02:22:52;;;;;;;4.47;0.70;;;;;;;;;;5029095;28;20091;-80
2023/12/27 02:25:17;;;;;;;5.68;0.77;;;;;;;;;;5028696;28;20044;-80
2023/12/27 02:27:42;;;;;;;8.95;1.67;;;;;;;;;;5030260;28;20029;-79
2023/12/27 02:30:15;;;;;;;5.95;1.67;;;;;;;;;;5032388;28;20165;-80
2023/12/27 02:32:41;;;;;;;6.40;0.82;;;;;;;;;;5030810;28;20029;-80
2023/12/27 02:35:06;;;;;;;11.63;1.67;;;;;;;;;;5044761;28;20043;-80
2023/12/27 02:37:32;;;;;;;7.68;1.50;;;;;;;;;;5031081;28;20575;-80
2023/12/27 02:39:59;;;;;;;7.43;0.85;;;;;;;;;;5032173;28;20373;-80
2023/12/27 02:42:24;;;;;;;6.15;0.98;;;;;;;;;;5029718;28;20052;-79
2023/12/27 02:44:49;;;;;;;6.53;1.25;;;;;;;;;;5031989;28;20469;-79
2023/12/27 02:47:15;;;;;;;9.57;1.30;;;;;;;;;;5024892;28;20025;-80
2023/12/27 02:49:40;;;;;;;4.97;0.70;;;;;;;;;;5030588;28;20113;-79
2023/12/27 02:52:06;;;;;;;2.67;0.60;;;;;;;;;;5031694;28;20489;-79
2023/12/27 02:54:31;;;;;;;7.82;1.42;;;;;;;;;;5030054;28;20037;-80
2023/12/27 02:56:56;;;;;;;6.15;0.73;;;;;;;;;;5028892;28;20112;-80
2023/12/27 02:59:21;;;;;;;8.55;1.25;;;;;;;;;;5027166;28;20049;-80
2023/12/27 03:01:46;;;;;;;7.57;1.17;;;;;;;;;;5031202;28;20036;-80
2023/12/27 03:04:12;;;;;;;4.32;0.90;;;;;;;;;;5024986;28;20517;-79
2023/12/27 03:06:37;;;;;;;11.48;1.15;;;;;;;;;;5031322;28;20029;-80
2023/12/27 03:09:02;;;;;;;6.07;1.17;;;;;;;;;;5030324;28;20405;-80
2023/12/27 03:11:30;;;;;;;5.53;1.00;;;;;;;;;;5028666;28;20033;-80
2023/12/27 03:13:55;;;;;;;6.20;1.05;;;;;;;;;;5039177;28;20031;-79
2023/12/27 03:16:20;;;;;;;9.68;0.95;;;;;;;;;;5025678;28;20104;-79
2023/12/27 03:18:46;;;;;;;7.10;1.67;;;;;;;;;;5030631;28;20060;-80
2023/12/27 03:21:11;;;;;;;6.47;0.70;;;;;;;;;;5014653;28;20021;-79
2023/12/27 03:23:36;;;;;;;5.35;0.88;;;;;;;;;;5029048;28;20487;-79
2023/12/27 03:26:01;;;;;;;7.97;1.17;;;;;;;;;;5030874;28;20029;-79
2023/12/27 03:28:26;;;;;;;2.15;0.60;;;;;;;;;;5028375;28;20117;-79
2023/12/27 03:30:51;;;;;;;6.18;0.90;;;;;;;;;;5031195;28;20060;-79
2023/12/27 03:33:17;;;;;;;3.53;0.60;;;;;;;;;;5027794;28;20029;-79
2023/12/27 03:35:43;;;;;;;7.15;1.00;;;;;;;;;;5028689;28;20042;-79
2023/12/27 03:38:08;;;;;;;7.55;1.10;;;;;;;;;;5038821;28;20130;-80
2023/12/27 03:40:34;;;;;;;3.53;0.80;;;;;;;;;;5028748;28;20485;-79
2023/12/27 03:42:59;;;;;;;8.65;1.25;;;;;;;;;;5027443;28;20037;-79
2023/12/27 03:45:25;;;;;;;8.80;1.40;;;;;;;;;;5027552;28;20076;-79
2023/12/27 03:47:50;;;;;;;8.45;1.15;;;;;;;;;;5045776;28;20024;-80
2023/12/27 03:50:15;;;;;;;6.22;1.25;;;;;;;;;;5029381;28;20482;-79
2023/12/27 03:52:41;;;;;;;5.85;0.77;;;;;;;;;;5025722;28;20096;-79
2023/12/27 03:55:07;;;;;;;7.72;1.00;;;;;;;;;;5026209;28;20108;-79
2023/12/27 03:57:32;;;;;;;10.02;1.10;;;;;;;;;;5031080;28;20124;-79
2023/12/27 03:59:58;;;;;;;7.35;1.17;;;;;;;;;;5026186;28;20541;-79
2023/12/27 04:02:23;;;;;;;8.15;0.90;;;;;;;;;;5029524;28;20034;-79
2023/12/27 04:04:49;;;;;;;6.47;0.80;;;;;;;;;;5030296;28;20029;-79
2023/12/27 04:07:14;;;;;;;8.50;1.35;;;;;;;;;;5029913;28;20029;-80
2023/12/27 04:09:40;;;;;;;8.55;0.80;;;;;;;;;;5025789;28;20038;-79
2023/12/27 04:12:06;;;;;;;9.48;0.90;;;;;;;;;;5039707;28;20147;-79
2023/12/27 04:14:31;;;;;;;8.05;1.20;;;;;;;;;;5030528;28;20036;-79
2023/12/27 04:16:56;;;;;;;8.63;0.95;;;;;;;;;;5013755;28;20033;-80
2023/12/27 04:19:21;;;;;;;6.28;1.08;;;;;;;;;;5028730;28;20025;-79
2023/12/27 04:21:47;;;;;;;4.05;0.70;;;;;;;;;;5026536;28;20037;-80
2023/12/27 04:24:12;;;;;;;6.10;0.88;;;;;;;;;;5027052;28;20022;-79
2023/12/27 04:26:41;;;;;;;6.32;0.80;;;;;;;;;;5021615;28;20030;-79
2023/12/27 04:29:09;;;;;;;4.15;1.00;;;;;;;;;;5031305;28;20030;-80
2023/12/27 04:31:38;;;;;;;6.72;0.90;;;;;;;;;;5028498;28;20052;-80
2023/12/27 04:34:04;;;;;;;4.30;1.02;;;;;;;;;;5029716;28;20025;-80
2023/12/27 04:36:34;;;;;;;4.82;0.60;;;;;;;;;;5027512;28;20513;-79
2023/12/27 04:38:59;;;;;;;6.53;0.85;;;;;;;;;;5029607;28;20021;-80
2023/12/27 04:41:25;;;;;;;6.22;1.00;;;;;;;;;;5029817;28;20029;-79
2023/12/27 04:43:50;;;;;;;7.25;1.05;;;;;;;;;;5029110;28;20048;-79
2023/12/27 04:46:15;;;;;;;4.35;1.23;;;;;;;;;;5031808;28;20117;-80
2023/12/27 04:48:40;;;;;;;7.72;1.02;;;;;;;;;;5029423;28;20144;-79
2023/12/27 04:51:07;;;;;;;3.55;0.60;;;;;;;;;;5029740;28;20041;-79
2023/12/27 04:53:33;;;;;;;3.83;0.57;;;;;;;;;;5026819;28;20037;-79
2023/12/27 04:55:58;;;;;;;11.57;1.10;;;;;;;;;;5023946;28;20041;-79
2023/12/27 04:58:23;;;;;;;3.88;0.77;;;;;;;;;;5029756;28;20036;-80
2023/12/27 05:00:49;;;;;;;9.48;1.10;;;;;;;;;;5029022;28;20032;-79
2023/12/27 05:03:14;;;;;;;12.02;1.15;;;;;;;;;;5025464;28;20045;-80
2023/12/27 05:05:39;;;;;;;4.60;0.70;;;;;;;;;;5022535;28;20030;-79
2023/12/27 05:08:05;;;;;;;10.15;1.00;;;;;;;;;;5029074;28;20406;-80
2023/12/27 05:10:30;;;;;;;7.30;1.67;;;;;;;;;;5028496;28;20022;-79
2023/12/27 05:12:56;;;;;;;7.03;0.80;;;;;;;;;;5029231;28;20025;-80
2023/12/27 05:15:21;;;;;;;6.80;0.70;;;;;;;;;;5028365;28;20688;-79
2023/12/27 05:17:46;;;;;;;7.85;1.25;;;;;;;;;;5028912;28;20034;-79
2023/12/27 05:20:11;;;;;;;4.40;0.82;;;;;;;;;;5026346;28;20532;-79
2023/12/27 05:22:39;;;;;;;4.80;0.90;;;;;;;;;;5026522;28;20080;-79
2023/12/27 05:25:05;;;;;;;9.20;0.88;;;;;;;;;;5029563;28;20068;-80
2023/12/27 05:27:30;;;;;;;5.03;1.85;;;;;;;;;;5030011;28;20493;-79
2023/12/27 05:29:55;;;;;;;6.53;1.75;;;;;;;;;;5028338;28;20526;-79
2023/12/27 05:32:20;;;;;;;8.30;1.00;;;;;;;;;;5025641;28;20040;-79
2023/12/27 05:34:45;;;;;;;4.00;1.00;;;;;;;;;;5026464;28;20048;-80
2023/12/27 05:37:11;;;;;;;5.35;1.10;;;;;;;;;;5026367;28;20036;-79
2023/12/27 05:39:36;;;;;;;5.47;1.55;;;;;;;;;;5032821;28;20120;-79
2023/12/27 05:42:02;;;;;;;5.93;1.88;;;;;;;;;;5031556;28;20029;-79
2023/12/27 05:44:27;;;;;;;5.78;1.10;;;;;;;;;;5029633;28;20510;-79
2023/12/27 05:46:52;;;;;;;5.55;0.90;;;;;;;;;;5032880;28;20056;-79
2023/12/27 05:49:17;;;;;;;4.47;0.80;;;;;;;;;;5030251;28;20021;-79
2023/12/27 05:51:42;;;;;;;4.90;0.80;;;;;;;;;;5027933;28;20413;-79
2023/12/27 05:54:09;;;;;;;6.00;0.82;;;;;;;;;;5032525;28;20120;-79
2023/12/27 05:56:34;;;;;;;4.22;1.17;;;;;;;;;;5029196;28;20087;-79
2023/12/27 05:59:00;;;;;;;5.07;0.93;;;;;;;;;;5033177;28;20017;-79
2023/12/27 06:01:25;;;;;;;6.47;1.17;;;;;;;;;;5028248;28;20030;-79
2023/12/27 06:03:50;;;;;;;4.78;0.70;;;;;;;;;;5029485;28;20116;-79
2023/12/27 06:06:15;;;;;;;5.90;1.02;;;;;;;;;;5029187;28;20040;-79
2023/12/27 06:08:40;;;;;;;7.20;1.95;;;;;;;;;;5030302;28;20116;-79
2023/12/27 06:11:11;;;;;;;8.25;2.20;;;;;;;;;;5031751;28;20652;-79
2023/12/27 06:13:37;;;;;;;12.85;2.78;;;;;;;;;;5026061;28;20034;-79
2023/12/27 06:16:02;;;;;;;7.43;2.45;;;;;;;;;;5027432;28;20030;-80
2023/12/27 06:18:28;;;;;;;8.98;1.95;;;;;;;;;;5028235;28;20029;-79
2023/12/27 06:20:53;;;;;;;9.93;2.88;;;;;;;;;;5032286;28;20040;-78
2023/12/27 06:23:18;;;;;;;12.38;3.75;;;;;;;;;;5030666;28;20033;-79
2023/12/27 06:25:43;;;;;;;11.30;3.33;;;;;;;;;;5027709;28;20026;-79
2023/12/27 06:28:08;;;;;;;8.68;1.65;;;;;;;;;;5030668;28;20374;-80
2023/12/27 06:30:33;;;;;;;4.47;0.95;;;;;;;;;;5029754;28;20036;-79
2023/12/27 06:32:59;;;;;;;7.30;0.88;;;;;;;;;;5040884;28;20029;-79
2023/12/27 06:35:24;;;;;;;5.53;1.00;;;;;;;;;;5031802;28;20025;-80
2023/12/27 06:37:49;;;;;;;6.47;0.95;;;;;;;;;;5028805;28;20509;-80
2023/12/27 06:40:14;;;;;;;9.55;1.60;;;;;;;;;;5030211;28;20029;-79
2023/12/27 06:42:39;;;;;;;5.13;0.75;;;;;;;;;;5042449;28;20080;-79
2023/12/27 06:45:05;;;;;;;5.15;0.90;;;;;;;;;;5025102;28;20064;-79
2023/12/27 06:47:30;;;;;;;3.50;0.63;;;;;;;;;;5024695;28;20075;-79
2023/12/27 06:49:55;;;;;;;3.70;0.63;;;;;;;;;;5031188;28;20486;-79
2023/12/27 06:52:20;;;;;;;2.60;0.47;;;;;;;;;;5045752;28;20080;-78
2023/12/27 06:54:46;;;;;;;4.10;0.65;;;;;;;;;;5028063;28;20502;-79
2023/12/27 06:57:11;;;;;;;8.65;1.05;;;;;;;;;;5025968;28;20071;-79
2023/12/27 06:59:37;;;;;;;3.83;0.80;;;;;;;;;;5041341;28;20030;-79
2023/12/27 07:02:04;;;;;;;6.22;0.98;;;;;;;;;;5032294;28;20060;-79
2023/12/27 07:04:29;;;;;;;3.90;0.65;;;;;;;;;;5031528;28;20032;-79
2023/12/27 07:06:55;;;;;;;7.55;1.20;;;;;;;;;;5030986;28;20025;-79
2023/12/27 07:09:20;;;;;;;7.40;1.15;;;;;;;;;;5026281;28;20029;-79
2023/12/27 07:11:45;;;;;;;5.20;1.40;;;;;;;;;;5027855;28;20040;-79
2023/12/27 07:14:10;;;;;;;5.05;1.70;;;;;;;;;;5025008;28;20045;-79
2023/12/27 07:16:35;;;;;;;5.65;1.60;;;;;;;;;;5021687;28;20033;-79
2023/12/27 07:19:01;;;;;;;8.37;2.30;;;;;;;;;;5030990;28;20025;-79
2023/12/27 07:21:26;;;;;;;6.82;2.38;;;;;;;;;;5043866;28;20079;-79
2023/12/27 07:23:51;;;;;;;7.72;3.25;;;;;;;;;;5030382;28;20029;-79
2023/12/27 07:26:16;;;;;;;7.40;3.08;;;;;;;;;;5024211;28;20400;-78
2023/12/27 07:28:41;;;;;;;12.55;3.30;;;;;;;;;;5044231;28;20033;-79
2023/12/27 07:31:07;;;;;;;8.75;3.00;;;;;;;;;;5031136;28;20053;-80
2023/12/27 07:33:35;;;;;;;7.13;1.98;;;;;;;;;;5027757;28;20038;-79
2023/12/27 07:36:01;;;;;;;7.03;1.80;;;;;;;;;;5039932;23;20449;-77
2023/12/27 07:38:26;;;;;;;7.65;2.28;;;;;;;;;;5021156;28;20056;-77
2023/12/27 07:40:51;;;;;;;8.15;1.20;;;;;;;;;;5037694;28;20049;-77
2023/12/27 07:43:17;;;;;;;5.28;1.73;;;;;;;;;;5019498;28;20405;-77
2023/12/27 07:45:44;;;;;;;11.20;2.22;;;;;;;;;;5015875;28;20503;-77
2023/12/27 07:48:09;;;;;;;7.50;1.88;;;;;;;;;;5010009;28;20022;-77
2023/12/27 07:50:36;;;;;;;10.95;2.53;;;;;;;;;;5004716;28;20041;-78
2023/12/27 07:53:01;;;;;;;7.10;3.13;;;;;;;;;;5008481;28;20025;-77
2023/12/27 07:55:27;;;;;;;7.90;2.45;;;;;;;;;;5015637;28;20399;-77
2023/12/27 07:57:52;;;;;;;8.63;2.13;;;;;;;;;;5011233;28;20030;-78
2023/12/27 08:00:18;;;;;;;8.57;2.13;;;;;;;;;;5009495;28;20054;-78
2023/12/27 08:02:43;;;;;;;7.93;2.20;;;;;;;;;;5007734;28;20030;-77
2023/12/27 08:05:08;;;;;;;6.00;1.92;;;;;;;;;;5006223;28;20037;-77
2023/12/27 08:07:33;;;;;;;7.63;2.03;;;;;;;;;;5004266;28;20038;-77
2023/12/27 08:09:58;;;;;;;7.07;1.73;;;;;;;;;;5007525;28;20465;-77
2023/12/27 08:12:24;;;;;;;3.60;1.20;;;;;;;;;;5009878;28;20025;-78
2023/12/27 08:14:49;;;;;;;5.05;1.52;;;;;;;;;;5007549;28;20026;-78
2023/12/27 08:17:14;;;;;;;6.50;1.70;;;;;;;;;;5007191;28;20088;-77
2023/12/27 08:19:39;;;;;;;4.72;1.52;;;;;;;;;;5021416;28;20045;-78
2023/12/27 08:22:04;;;;;;;6.97;1.60;;;;;;;;;;5004214;28;20033;-77
2023/12/27 08:24:30;;;;;;;5.28;1.70;;;;;;;;;;5022271;28;20515;-77
2023/12/27 08:26:55;;;;;;;5.13;1.73;;;;;;;;;;5009003;28;20458;-77
2023/12/27 08:29:20;;;;;;;8.63;1.40;;;;;;;;;;5009458;28;20029;-77
2023/12/27 08:31:45;;;;;;;7.38;1.45;;;;;;;;;;5004904;28;20113;-77
2023/12/27 08:34:11;;;;;;;6.13;1.27;;;;;;;;;;5007088;28;20033;-78
2023/12/27 08:36:36;;;;;;;6.45;2.10;;;;;;;;;;5003383;28;20037;-78
2023/12/27 08:39:01;;;;;;;7.40;1.40;;;;;;;;;;5006298;28;20105;-78
2023/12/27 08:41:26;;;;;;;5.38;1.00;;;;;;;;;;5008920;28;20033;-77
2023/12/27 08:43:52;;;;;;;5.18;1.50;;;;;;;;;;5008892;28;20033;-78
2023/12/27 08:46:19;;;;;;;5.78;1.30;;;;;;;;;;5005736;28;20636;-77
2023/12/27 08:48:46;;;;;;;6.18;1.65;;;;;;;;;;5005812;28;20509;-77
2023/12/27 08:51:11;;;;;;;6.40;1.50;;;;;;;;;;5002079;28;20104;-78
2023/12/27 08:53:36;;;;;;;7.05;1.38;;;;;;;;;;5005545;28;20502;-78
2023/12/27 08:56:02;;;;;;;5.93;1.50;;;;;;;;;;5009470;28;20033;-78
2023/12/27 08:58:27;;;;;;;6.35;1.85;;;;;;;;;;5009025;28;20034;-78
2023/12/27 09:00:53;;;;;;;4.30;1.10;;;;;;;;;;5006577;28;20414;-78
2023/12/27 09:03:18;;;;;;;10.23;1.58;;;;;;;;;;5007198;28;20048;-78
2023/12/27 09:05:43;;;;;;;3.90;1.63;;;;;;;;;;5004369;28;20026;-78
2023/12/27 09:08:09;;;;;;;7.25;1.13;;;;;;;;;;5012369;28;20033;-77
2023/12/27 09:10:35;;;;;;;5.88;1.70;;;;;;;;;;5010475;28;20030;-78
2023/12/27 09:13:00;;;;;;;7.43;1.48;;;;;;;;;;5011886;28;20029;-78
2023/12/27 09:15:25;;;;;;;8.65;1.67;;;;;;;;;;5009385;28;20026;-78
2023/12/27 09:17:51;;;;;;;5.35;1.70;;;;;;;;;;5007198;28;20041;-78
2023/12/27 09:20:16;;;;;;;5.35;1.70;;;;;;;;;;5014313;28;20496;-78
2023/12/27 09:22:41;;;;;;;6.60;1.80;;;;;;;;;;5011440;28;20041;-78
2023/12/27 09:25:06;;;;;;;6.75;1.58;;;;;;;;;;5011316;28;20033;-78
2023/12/27 09:27:31;;;;;;;8.65;1.60;;;;;;;;;;5012814;28;20042;-78
2023/12/27 09:29:57;;;;;;;7.60;1.92;;;;;;;;;;5021210;28;20041;-78
2023/12/27 09:32:22;;;;;;;7.90;1.45;;;;;;;;;;5003617;28;20026;-79
2023/12/27 09:34:47;;;;;;;7.13;1.80;;;;;;;;;;5012366;28;20398;-78
2023/12/27 09:37:12;;;;;;;11.43;2.10;;;;;;;;;;5012584;28;20038;-78
2023/12/27 09:39:37;;;;;;;5.80;1.52;;;;;;;;;;5009182;28;20073;-78
2023/12/27 09:42:03;;;;;;;5.38;1.35;;;;;;;;;;5009148;28;20041;-78
2023/12/27 09:44:28;;;;;;;6.45;1.20;;;;;;;;;;5005395;28;20077;-78
2023/12/27 09:46:55;;;;;;;5.05;1.40;;;;;;;;;;5006066;28;20041;-78
2023/12/27 09:49:21;;;;;;;7.43;1.58;;;;;;;;;;5012725;28;20030;-78
2023/12/27 09:51:46;;;;;;;6.82;1.95;;;;;;;;;;5010130;28;20037;-78
2023/12/27 09:54:13;;;;;;;7.50;1.80;;;;;;;;;;5013676;28;20057;-78
2023/12/27 09:56:38;;;;;;;4.80;2.05;;;;;;;;;;5008755;28;20597;-79
2023/12/27 09:59:07;;;;;;;7.90;1.42;;;;;;;;;;5022609;28;20037;-78
2023/12/27 10:01:36;;;;;;;5.80;1.55;;;;;;;;;;5006184;28;20033;-78
2023/12/27 10:04:04;;;;;;;5.55;1.38;;;;;;;;;;5008825;28;20497;-78
2023/12/27 10:06:42;;;;;;;4.15;0.90;;;;;;;;;;5010880;28;20475;-78
2023/12/27 10:09:07;;;;;;;6.15;1.13;;;;;;;;;;5007941;28;20026;-78
2023/12/27 10:11:33;;;;;;;9.38;1.58;;;;;;;;;;5005142;28;20105;-78
2023/12/27 10:13:58;;;;;;;4.63;1.10;;;;;;;;;;5006085;28;20517;-78
2023/12/27 10:16:24;;;;;;;7.57;1.20;;;;;;;;;;5009358;28;20038;-78
2023/12/27 10:18:49;;;;;;;7.20;1.55;;;;;;;;;;5009840;28;20418;-78
2023/12/27 10:21:18;;;;;;;8.32;1.10;;;;;;;;;;5009991;28;20512;-78
2023/12/27 10:23:44;;;;;;;6.82;1.33;;;;;;;;;;5005613;28;20034;-78
2023/12/27 10:26:09;;;;;;;4.53;1.05;;;;;;;;;;5006203;28;20026;-78
2023/12/27 10:28:34;;;;;;;5.00;1.25;;;;;;;;;;5008304;28;20479;-78
2023/12/27 10:31:02;;;;;;;6.85;1.27;;;;;;;;;;5012403;28;20034;-78
2023/12/27 10:33:30;;;;;;;7.18;1.67;;;;;;;;;;5010132;28;20038;-78
2023/12/27 10:35:55;;;;;;;8.80;1.70;;;;;;;;;;5008413;28;20053;-78
2023/12/27 10:38:20;;;;;;;6.18;1.80;;;;;;;;;;5006524;28;20037;-78
2023/12/27 10:40:45;;;;;;;8.85;1.52;;;;;;;;;;5004351;28;20395;-78
2023/12/27 10:43:11;;;;;;;6.05;2.13;;;;;;;;;;5005112;28;20109;-78
2023/12/27 10:45:37;;;;;;;7.15;1.42;;;;;;;;;;5025804;28;20406;-78
2023/12/27 10:48:06;;;;;;;7.65;1.30;;;;;;;;;;5009273;28;20029;-78
2023/12/27 10:50:32;;;;;;;5.43;1.70;;;;;;;;;;5008785;28;20402;-78
2023/12/27 10:53:05;;;;;;;7.07;1.90;;;;;;;;;;5006271;28;20026;-78
2023/12/27 10:55:31;;;;;;;9.05;1.48;;;;;;;;;;5002844;28;20092;-78
2023/12/27 10:57:59;;;;;;;6.97;1.58;;;;;;;;;;5009451;28;20026;-78
2023/12/27 11:00:24;;;;;;;12.93;1.80;;;;;;;;;;5011061;28;20026;-78
2023/12/27 11:02:49;;;;;;;7.15;1.40;;;;;;;;;;5022717;28;20034;-78
2023/12/27 11:05:15;;;;;;;6.47;1.00;;;;;;;;;;5007934;28;20026;-78
2023/12/27 11:07:42;;;;;;;8.65;1.63;;;;;;;;;;5006344;28;20029;-77
2023/12/27 11:10:09;;;;;;;7.05;1.10;;;;;;;;;;5004926;28;20030;-78
2023/12/27 11:12:34;;;;;;;8.07;2.00;;;;;;;;;;5007832;28;20483;-78
2023/12/27 11:15:03;;;;;;;4.80;1.65;;;;;;;;;;5009871;28;20025;-77
2023/12/27 11:17:30;;;;;;;7.65;1.48;;;;;;;;;;5009025;28;20061;-78
2023/12/27 11:19:55;;;;;;;4.63;1.27;;;;;;;;;;5006925;28;20038;-78
2023/12/27 11:22:21;;;;;;;4.78;1.10;;;;;;;;;;5019361;28;20034;-78
2023/12/27 11:24:47;;;;;;;5.93;0.82;;;;;;;;;;5002619;28;20026;-78
2023/12/27 11:27:16;;;;;;;4.40;1.35;;;;;;;;;;5010586;28;20379;-78
2023/12/27 11:29:41;;;;;;;6.88;1.40;;;;;;;;;;5011346;28;20498;-78
2023/12/27 11:32:06;;;;;;;5.57;1.40;;;;;;;;;;5008362;28;20034;-78
2023/12/27 11:34:32;;;;;;;3.75;1.00;;;;;;;;;;5004104;28;20030;-78
2023/12/27 11:36:59;;;;;;;4.03;1.08;;;;;;;;;;5004316;28;20053;-77
2023/12/27 11:39:27;;;;;;;7.10;1.35;;;;;;;;;;5007810;28;20505;-77
2023/12/27 11:41:53;;;;;;;3.92;0.80;;;;;;;;;;5009265;28;20040;-78
2023/12/27 11:44:18;;;;;;;6.05;1.08;;;;;;;;;;5008666;28;20101;-78
2023/12/27 11:46:44;;;;;;;8.25;1.10;;;;;;;;;;5005186;28;20034;-78
2023/12/27 11:49:17;;;;;;;5.82;1.55;;;;;;;;;;5005547;28;20652;-78
2023/12/27 11:51:42;;;;;;;5.88;0.90;;;;;;;;;;5001647;28;20364;-78
2023/12/27 11:54:07;;;;;;;8.15;1.08;;;;;;;;;;5010876;28;20125;-78
2023/12/27 11:56:33;;;;;;;5.70;1.10;;;;;;;;;;5008825;28;20022;-77
2023/12/27 11:58:59;;;;;;;6.22;1.20;;;;;;;;;;5009405;28;20030;-78
2023/12/27 12:01:25;;;;;;;4.25;1.00;;;;;;;;;;5008305;28;20383;-78
2023/12/27 12:04:11;;;;;;;6.43;0.93;;;;;;;;;;5004759;28;20045;-78
2023/12/27 12:06:58;;;;;;;6.00;1.40;;;;;;;;;;5003590;28;20045;-78
2023/12/27 12:09:27;;;;;;;5.50;1.00;;;;;;;;;;5009199;28;20033;-78
2023/12/27 12:11:53;;;;;;;6.47;1.08;;;;;;;;;;5007435;28;20084;-78
2023/12/27 12:14:19;;;;;;;7.55;1.27;;;;;;;;;;5009105;28;20142;-78
2023/12/27 12:16:44;;;;;;;5.53;0.80;;;;;;;;;;5002903;28;20035;-78
2023/12/27 12:19:11;;;;;;;5.25;1.23;;;;;;;;;;5003632;28;20030;-78
2023/12/27 12:21:36;;;;;;;7.13;1.17;;;;;;;;;;5006846;28;20030;-78
2023/12/27 12:24:08;;;;;;;7.85;1.35;;;;;;;;;;5009043;28;20063;-78
2023/12/27 12:26:33;;;;;;;5.97;1.43;;;;;;;;;;5006638;28;20364;-78
2023/12/27 12:29:00;;;;;;;7.43;1.20;;;;;;;;;;5007780;28;20036;-78
2023/12/27 12:31:25;;;;;;;6.10;1.10;;;;;;;;;;5022162;28;20453;-78
2023/12/27 12:33:50;;;;;;;7.30;1.15;;;;;;;;;;5001689;28;20031;-77
2023/12/27 12:36:16;;;;;;;4.78;1.10;;;;;;;;;;5010020;28;20061;-78
2023/12/27 12:38:42;;;;;;;3.75;1.00;;;;;;;;;;5008007;28;20042;-77
2023/12/27 12:41:07;;;;;;;5.22;1.00;;;;;;;;;;5006689;28;20084;-78
2023/12/27 12:43:32;;;;;;;7.38;1.52;;;;;;;;;;5003402;28;20104;-78
2023/12/27 12:45:58;;;;;;;7.00;1.40;;;;;;;;;;5005175;28;20061;-78
2023/12/27 12:48:26;;;;;;;6.22;1.65;;;;;;;;;;5003100;28;20113;-78
2023/12/27 12:51:11;;;;;;;5.38;1.52;;;;;;;;;;5008844;28;20514;-78
2023/12/27 12:53:36;;;;;;;8.32;0.98;;;;;;;;;;5008411;28;20037;-78
2023/12/27 12:56:01;;;;;;;5.75;1.23;;;;;;;;;;5006288;28;20030;-78
2023/12/27 12:58:26;;;;;;;4.38;1.20;;;;;;;;;;5007997;28;20030;-78
2023/12/27 13:00:52;;;;;;;5.97;1.30;;;;;;;;;;5005905;28;20036;-77
2023/12/27 13:03:17;;;;;;;5.60;1.15;;;;;;;;;;5008430;28;20014;-78
2023/12/27 13:05:42;;;;;;;8.80;1.42;;;;;;;;;;5007723;28;20041;-78
2023/12/27 13:08:07;;;;;;;4.13;1.15;;;;;;;;;;5006958;28;20030;-78
2023/12/27 13:10:34;;;;;;;5.68;1.20;;;;;;;;;;5007770;28;20073;-78
2023/12/27 13:13:00;;;;;;;4.10;1.00;;;;;;;;;;5003717;28;20090;-77
2023/12/27 13:15:25;;;;;;;5.72;1.20;;;;;;;;;;5003383;28;20033;-78
2023/12/27 13:17:50;;;;;;;6.18;1.20;;;;;;;;;;5008900;28;20030;-78
2023/12/27 13:20:16;;;;;;;6.03;1.30;;;;;;;;;;5008446;28;20510;-78
2023/12/27 13:22:42;;;;;;;5.28;1.05;;;;;;;;;;5004334;28;20039;-78
2023/12/27 13:25:09;;;;;;;6.38;0.98;;;;;;;;;;5005550;28;20111;-78
2023/12/27 13:27:35;;;;;;;4.68;0.98;;;;;;;;;;5010066;28;20026;-78
2023/12/27 13:30:00;;;;;;;11.45;1.20;;;;;;;;;;5006898;28;20486;-78
2023/12/27 13:32:25;;;;;;;3.58;1.63;;;;;;;;;;5009009;28;20022;-78
2023/12/27 13:34:50;;;;;;;7.32;1.02;;;;;;;;;;5007475;28;20489;-78
2023/12/27 13:39:41;;;;;;;4.75;1.20;;;;;;;;;;4990768;28;20069;-79
2023/12/27 13:42:06;;;;;;;5.57;1.27;;;;;;;;;;4991672;28;20438;-77
2023/12/27 13:44:32;;;;;;;5.78;1.27;;;;;;;;;;4990723;28;20030;-77
2023/12/27 13:46:57;;;;;;;5.07;1.10;;;;;;;;;;4990883;28;20057;-76
2023/12/27 13:49:24;;;;;;;8.15;1.80;;;;;;;;;;4998059;28;20027;-77
2023/12/27 13:51:49;;;;;;;6.75;1.35;;;;;;;;;;4988534;28;20030;-76
2023/12/27 13:54:14;;;;;;;6.18;1.00;;;;;;;;;;5004707;28;20030;-77
2023/12/27 13:56:39;;;;;;;6.60;1.88;;;;;;;;;;4994221;28;20042;-76
2023/12/27 13:59:05;;;;;;;5.40;1.77;;;;;;;;;;4992479;28;20046;-76
2023/12/27 14:01:31;;;;;;;7.88;1.25;;;;;;;;;;4994175;28;20034;-77
2023/12/27 14:03:56;;;;;;;4.95;1.20;;;;;;;;;;5005088;28;20081;-76
2023/12/27 14:06:22;;;;;;;5.40;1.30;;;;;;;;;;4994192;28;20502;-76
2023/12/27 14:08:47;;;;;;;6.32;1.20;;;;;;;;;;5000863;28;20035;-77
2023/12/27 14:11:13;;;;;;;8.63;1.80;;;;;;;;;;4993798;28;20129;-76
2023/12/27 14:13:38;;;;;;;6.40;1.70;;;;;;;;;;4994783;28;20042;-76
2023/12/27 14:16:03;;;;;;;5.53;1.48;;;;;;;;;;4994098;28;20038;-77
2023/12/27 14:18:29;;;;;;;5.75;1.33;;;;;;;;;;5000999;28;20137;-77
2023/12/27 14:20:54;;;;;;;6.38;1.50;;;;;;;;;;5001134;28;20513;-76
2023/12/27 14:23:19;;;;;;;6.32;1.52;;;;;;;;;;4992959;28;20038;-77
2023/12/27 14:25:44;;;;;;;5.25;1.75;;;;;;;;;;5001940;28;20072;-75
2023/12/27 14:28:10;;;;;;;7.85;1.58;;;;;;;;;;4995098;28;20027;-77
2023/12/27 14:30:35;;;;;;;5.82;1.50;;;;;;;;;;4993826;28;20061;-77
2023/12/27 14:33:00;;;;;;;5.35;1.35;;;;;;;;;;4991231;28;20026;-76
2023/12/27 14:35:27;;;;;;;6.93;1.50;;;;;;;;;;5004552;28;20039;-77
2023/12/27 14:37:53;;;;;;;7.78;1.60;;;;;;;;;;4999995;28;20034;-76